Time;durP1;ratioP1;P1;durP2;ratioP2;P2;SDS_P1;SDS_P2;PMS_P1;PMS_P2;Temp;Humidity;BMP_temperature;BMP_pressure;BME280_temperature;BME280_humidity;BME280_pressure;Samples;Min_cycle;Max_cycle;Signal;HPM_P1;HPM_P2
2023/03/21 05:13:05;;;;;;;11.25;8.40;;;;;;;8.76;100.00;100249.94;5561379;32;198905;-85
2023/03/21 05:16:10;;;;;;;11.57;8.60;;;;;;;8.76;100.00;100255.22;5549936;32;33721;-86
2023/03/21 05:19:14;;;;;;;10.35;8.77;;;;;;;8.93;100.00;100258.03;5549518;32;34325;-86
2023/03/21 05:22:18;;;;;;;11.32;8.55;;;;;;;9.01;100.00;100259.41;5549043;32;34405;-85
2023/03/21 05:25:33;;;;;;;11.55;8.27;;;;;;;9.09;100.00;100263.50;5549458;32;35119;-85
2023/03/21 05:28:38;;;;;;;11.43;8.27;;;;;;;9.22;100.00;100256.75;5549957;32;34583;-84
2023/03/21 05:31:45;;;;;;;12.00;8.38;;;;;;;9.26;100.00;100257.47;5549598;32;34766;-83
2023/03/21 05:34:48;;;;;;;14.23;8.48;;;;;;;9.31;100.00;100271.34;5549351;32;34510;-83
2023/03/21 05:37:52;;;;;;;11.40;8.27;;;;;;;9.42;100.00;100273.50;5549598;32;34616;-87
2023/03/21 05:40:56;;;;;;;9.93;7.87;;;;;;;9.45;100.00;100270.69;5550498;32;33182;-87
2023/03/21 05:43:59;;;;;;;12.37;8.25;;;;;;;9.53;100.00;100271.19;5552365;32;35313;-87
2023/03/21 05:47:05;;;;;;;9.95;8.27;;;;;;;9.62;100.00;100272.56;5551245;32;34079;-85
2023/03/21 05:50:12;;;;;;;9.68;7.32;;;;;;;9.71;100.00;100274.75;5574955;32;33418;-84
2023/03/21 05:53:16;;;;;;;11.57;7.60;;;;;;;9.78;100.00;100277.97;5574003;32;34771;-84
2023/03/21 05:56:19;;;;;;;9.93;8.02;;;;;;;9.89;100.00;100274.81;5561357;32;33844;-84
2023/03/21 05:59:22;;;;;;;11.43;8.68;;;;;;;10.00;100.00;100276.06;5555716;32;32797;-85
2023/03/21 06:02:26;;;;;;;11.18;8.55;;;;;;;9.98;100.00;100282.31;5548706;32;34491;-84
2023/03/21 06:05:30;;;;;;;11.98;9.05;;;;;;;10.04;100.00;100283.78;5565847;32;33666;-84
2023/03/21 06:08:33;;;;;;;11.43;8.65;;;;;;;10.05;100.00;100288.16;5575124;31;33857;-84
2023/03/21 06:11:40;;;;;;;10.60;7.97;;;;;;;10.18;100.00;100293.72;5563228;32;34316;-84
2023/03/21 06:14:45;;;;;;;11.40;8.32;;;;;;;10.28;100.00;100283.53;5553610;32;34376;-84
2023/03/21 06:17:49;;;;;;;10.15;7.60;;;;;;;10.60;97.34;100285.50;5553668;32;34431;-84
2023/03/21 06:20:53;;;;;;;10.20;8.25;;;;;;;10.68;97.17;100280.66;5572148;32;33592;-84
2023/03/21 06:23:56;;;;;;;9.70;7.57;;;;;;;10.80;94.79;100281.81;5547700;32;35333;-84
2023/03/21 06:26:58;;;;;;;10.75;7.32;;;;;;;10.76;95.23;100283.78;5550436;31;33747;-84
2023/03/21 06:30:04;;;;;;;11.63;7.60;;;;;;;11.08;93.43;100279.50;5553278;32;35223;-86
2023/03/21 06:33:10;;;;;;;9.30;7.75;;;;;;;11.70;88.94;100286.75;5547826;32;34776;-85
2023/03/21 06:36:12;;;;;;;8.65;7.75;;;;;;;11.71;86.59;100283.16;5545199;32;35469;-85
2023/03/21 06:39:16;;;;;;;10.85;7.85;;;;;;;11.83;86.54;100281.63;5536213;32;35190;-85
2023/03/21 06:42:19;;;;;;;10.38;8.15;;;;;;;12.80;81.47;100290.25;5546055;32;34754;-86
2023/03/21 06:45:24;;;;;;;8.68;7.72;;;;;;;13.74;75.18;100288.03;5539635;32;33720;-86
2023/03/21 06:48:27;;;;;;;9.18;6.72;;;;;;;14.53;69.77;100290.84;5528012;32;34027;-85
2023/03/21 06:51:30;;;;;;;10.88;7.45;;;;;;;16.42;62.18;100282.91;5526275;32;34087;-86
2023/03/21 06:54:36;;;;;;;9.63;7.05;;;;;;;17.79;55.43;100285.69;5532247;32;33962;-85
2023/03/21 06:57:39;;;;;;;8.40;7.37;;;;;;;18.09;54.03;100294.87;5532691;32;34246;-86
2023/03/21 07:00:43;;;;;;;7.57;6.45;;;;;;;19.11;50.86;100292.66;5551199;32;34119;-86
2023/03/21 07:03:47;;;;;;;8.68;7.47;;;;;;;20.03;47.46;100296.22;5535434;32;34483;-84
2023/03/21 07:06:50;;;;;;;9.63;8.15;;;;;;;18.23;51.01;100301.81;5542961;32;34325;-85
2023/03/21 07:09:55;;;;;;;11.98;8.10;;;;;;;17.42;53.58;100307.44;5543405;32;34445;-85
2023/03/21 07:12:58;;;;;;;10.93;8.00;;;;;;;14.78;64.58;100296.38;5543459;32;33750;-85
2023/03/21 07:16:02;;;;;;;8.68;7.78;;;;;;;15.22;63.98;100300.44;5531824;32;34080;-85
2023/03/21 07:19:05;;;;;;;11.65;8.10;;;;;;;14.28;68.88;100300.50;5533703;32;33459;-85
2023/03/21 07:22:08;;;;;;;11.30;7.93;;;;;;;13.78;71.45;100304.69;5546010;32;34789;-84
2023/03/21 07:25:11;;;;;;;10.68;7.93;;;;;;;14.02;70.36;100308.44;5548664;32;34124;-85
2023/03/21 07:28:15;;;;;;;8.55;7.65;;;;;;;14.27;68.52;100300.59;5532698;32;34543;-84
2023/03/21 07:31:18;;;;;;;8.18;7.30;;;;;;;15.77;63.00;100302.78;5531517;32;33995;-84
2023/03/21 07:34:22;;;;;;;8.45;6.72;;;;;;;17.55;56.20;100310.00;5540171;32;34183;-84
2023/03/21 07:37:26;;;;;;;9.65;7.03;;;;;;;20.59;47.58;100299.19;5531951;32;34102;-89
2023/03/21 07:40:31;;;;;;;7.22;6.53;;;;;;;21.99;42.83;100303.06;5553634;32;33868;-89
2023/03/21 07:43:34;;;;;;;7.82;6.72;;;;;;;22.71;39.34;100302.19;5532859;32;34809;-91
2023/03/21 07:46:41;;;;;;;8.65;7.20;;;;;;;23.80;37.46;100296.34;5530309;32;34385;-86
2023/03/21 07:49:44;;;;;;;6.75;5.18;;;;;;;24.22;35.63;100310.81;5533890;32;34096;-85
2023/03/21 07:52:48;;;;;;;7.15;5.97;;;;;;;25.39;34.48;100290.66;5530904;32;33918;-83
2023/03/21 07:55:55;;;;;;;5.85;5.25;;;;;;;25.62;33.31;100298.06;5538081;32;36138;-85
2023/03/21 07:58:58;;;;;;;8.70;6.20;;;;;;;26.84;30.88;100295.63;5539691;32;34743;-85
2023/03/21 08:02:01;;;;;;;6.50;5.90;;;;;;;27.24;30.98;100295.41;5535509;32;34895;-84
2023/03/21 08:05:04;;;;;;;6.47;5.43;;;;;;;27.77;29.31;100294.41;5540062;32;33901;-84
2023/03/21 08:08:07;;;;;;;6.15;5.53;;;;;;;31.80;24.21;100288.75;5535006;32;33892;-84
2023/03/21 08:11:11;;;;;;;6.50;5.22;;;;;;;32.99;22.48;100295.50;5525685;32;34083;-85
2023/03/21 08:14:14;;;;;;;6.47;5.18;;;;;;;33.20;22.52;100294.16;5534257;32;34152;-85
2023/03/21 08:17:17;;;;;;;5.75;5.28;;;;;;;34.70;21.01;100299.28;5525177;32;34072;-86
2023/03/21 08:20:22;;;;;;;5.87;5.37;;;;;;;32.27;21.93;100285.72;5523319;32;33858;-85
2023/03/21 08:23:25;;;;;;;6.45;4.80;;;;;;;32.57;21.49;100287.81;5522512;32;32753;-85
2023/03/21 08:26:27;;;;;;;5.57;5.00;;;;;;;33.74;20.90;100292.72;5529682;32;34947;-85
2023/03/21 08:29:30;;;;;;;5.22;4.82;;;;;;;30.34;24.52;100298.75;5523438;32;34229;-85
2023/03/21 08:32:33;;;;;;;6.78;4.85;;;;;;;27.50;27.20;100290.50;5523522;32;34002;-85
2023/03/21 08:35:39;;;;;;;6.30;5.50;;;;;;;27.10;28.25;100280.75;5530879;32;33788;-85
2023/03/21 08:38:44;;;;;;;5.47;4.93;;;;;;;25.76;30.25;100284.75;5534498;32;33847;-85
2023/03/21 08:41:47;;;;;;;7.70;5.03;;;;;;;25.82;30.23;100287.59;5513894;32;34308;-86
2023/03/21 08:44:50;;;;;;;7.47;4.80;;;;;;;24.58;31.82;100279.81;5522838;32;33722;-84
2023/03/21 08:47:53;;;;;;;8.38;5.45;;;;;;;23.96;33.61;100284.69;5546383;32;34995;-84
2023/03/21 08:50:59;;;;;;;9.93;5.85;;;;;;;24.98;32.12;100296.22;5532006;32;34292;-86
2023/03/21 08:54:02;;;;;;;9.63;5.50;;;;;;;23.39;33.75;100295.16;5529866;32;34182;-84
2023/03/21 08:57:05;;;;;;;5.90;5.10;;;;;;;22.88;35.46;100286.94;5530448;32;34880;-86
2023/03/21 09:00:12;;;;;;;7.93;5.00;;;;;;;21.88;37.21;100285.22;5539128;32;34757;-85
2023/03/21 09:03:15;;;;;;;6.60;5.43;;;;;;;22.93;35.41;100283.75;5542857;32;34323;-85
2023/03/21 09:06:18;;;;;;;7.62;4.78;;;;;;;22.55;35.90;100282.16;5539061;32;35260;-86
2023/03/21 09:09:21;;;;;;;6.50;4.97;;;;;;;23.36;35.54;100281.97;5549362;32;33813;-85
2023/03/21 09:12:24;;;;;;;6.43;4.25;;;;;;;22.28;35.85;100281.22;5519227;32;34416;-84
2023/03/21 09:15:28;;;;;;;7.95;5.25;;;;;;;22.93;34.63;100281.03;5513874;32;35248;-85
2023/03/21 09:18:48;;;;;;;6.15;4.78;;;;;;;22.14;36.17;100281.75;5528872;32;34634;-85
2023/03/21 09:21:52;;;;;;;5.33;4.83;;;;;;;22.48;36.66;100283.75;5540839;32;34061;-83
2023/03/21 09:24:56;;;;;;;5.80;4.90;;;;;;;21.76;37.19;100281.88;5533077;32;34953;-83
2023/03/21 09:28:00;;;;;;;5.28;4.60;;;;;;;22.65;35.39;100281.19;5549218;32;33628;-83
2023/03/21 09:31:04;;;;;;;11.63;4.75;;;;;;;22.82;35.40;100277.59;5545178;32;33934;-87
2023/03/21 09:34:07;;;;;;;6.47;4.90;;;;;;;22.08;36.83;100284.06;5551318;32;34797;-82
2023/03/21 09:37:12;;;;;;;8.95;5.12;;;;;;;22.85;35.12;100284.53;5546367;32;33929;-82
2023/03/21 09:40:19;;;;;;;6.00;4.80;;;;;;;22.28;36.11;100289.31;5523248;32;34827;-83
2023/03/21 09:43:41;;;;;;;8.82;5.00;;;;;;;21.73;38.19;100288.44;5535760;32;34075;-83
2023/03/21 09:46:50;;;;;;;;;;;;;;;22.25;37.50;100292.34;5541290;32;35029;-83
2023/03/21 09:50:15;;;;;;;6.70;4.30;;;;;;;22.05;36.93;100279.00;5544210;32;34414;-83
2023/03/21 09:53:27;;;;;;;8.45;5.65;;;;;;;21.78;36.70;100285.31;5543070;32;34022;-84
2023/03/21 09:56:30;;;;;;;13.77;4.82;;;;;;;20.31;40.46;100282.03;5532537;32;33795;-84
2023/03/21 09:59:41;;;;;;;5.68;4.07;;;;;;;21.57;37.56;100280.13;5545957;32;33772;-83
2023/03/21 10:02:52;;;;;;;8.93;4.78;;;;;;;21.40;36.98;100279.94;5530330;32;34501;-83
2023/03/21 10:06:00;;;;;;;9.05;4.60;;;;;;;21.45;36.99;100284.87;5548839;32;34665;-83
2023/03/21 10:09:06;;;;;;;5.30;4.65;;;;;;;22.11;36.66;100274.81;5538290;32;33821;-83
2023/03/21 10:12:19;;;;;;;7.22;4.95;;;;;;;21.92;36.24;100275.81;5534807;32;34201;-83
2023/03/21 10:15:25;;;;;;;5.12;4.03;;;;;;;22.39;35.81;100281.97;5535373;32;33785;-82
2023/03/21 10:18:30;;;;;;;6.78;4.00;;;;;;;22.56;34.73;100273.03;5523916;32;34012;-83
2023/03/21 10:21:32;;;;;;;5.25;3.97;;;;;;;22.51;34.64;100275.31;5534347;32;34868;-82
2023/03/21 10:24:55;;;;;;;7.87;4.05;;;;;;;22.80;33.55;100267.94;5535804;32;33214;-87
2023/03/21 10:28:00;;;;;;;4.32;3.80;;;;;;;22.88;33.32;100268.84;5536205;32;33874;-89
2023/03/21 10:31:16;;;;;;;4.10;3.80;;;;;;;22.63;34.22;100262.44;5536331;32;34572;-84
2023/03/21 10:34:26;;;;;;;3.67;3.37;;;;;;;22.43;35.09;100264.47;5535636;32;33921;-84
2023/03/21 10:37:31;;;;;;;4.33;3.80;;;;;;;23.94;33.85;100262.34;5535853;32;34405;-84
2023/03/21 10:40:33;;;;;;;4.22;3.83;;;;;;;25.16;28.96;100261.56;5535238;32;34012;-83
2023/03/21 10:43:39;;;;;;;4.57;3.58;;;;;;;24.73;31.61;100264.53;5536630;32;34796;-83
2023/03/21 10:46:54;;;;;;;4.62;3.78;;;;;;;22.51;34.06;100261.81;5542020;32;34407;-84
2023/03/21 10:50:05;;;;;;;7.00;3.72;;;;;;;22.96;33.40;100250.97;5519110;32;34362;-83
2023/03/21 10:53:34;;;;;;;4.95;4.55;;;;;;;23.23;32.97;100249.91;5530589;32;33898;-83
2023/03/21 10:56:42;;;;;;;6.60;4.10;;;;;;;21.19;36.28;100254.06;5521438;32;34706;-83
2023/03/21 10:59:56;;;;;;;14.07;4.62;;;;;;;22.31;35.00;100248.50;5550830;32;33946;-83
2023/03/21 11:02:59;;;;;;;4.10;3.70;;;;;;;23.50;33.19;100247.16;5549831;32;33796;-84
2023/03/21 11:06:37;;;;;;;4.57;3.87;;;;;;;23.61;32.10;100249.56;5538496;32;34194;-84
2023/03/21 11:09:47;;;;;;;3.85;3.40;;;;;;;26.46;27.76;100236.66;5489411;32;34089;-89
2023/03/21 11:12:56;;;;;;;7.62;3.67;;;;;;;28.60;25.37;100240.47;5550838;32;32431;-84
2023/03/21 11:16:23;;;;;;;7.70;4.37;;;;;;;28.82;24.38;100237.66;5541042;32;33918;-84
2023/03/21 11:19:34;;;;;;;5.53;4.30;;;;;;;25.89;28.00;100229.81;5527458;32;34250;-83
2023/03/21 11:22:42;;;;;;;12.68;4.22;;;;;;;23.68;31.09;100214.53;5538814;32;34366;-83
2023/03/21 11:25:49;;;;;;;4.62;4.10;;;;;;;22.80;33.75;100213.87;5528719;32;34006;-83
2023/03/21 11:29:32;;;;;;;9.57;4.60;;;;;;;21.54;34.63;100211.13;5548960;32;34109;-84
2023/03/21 11:32:37;;;;;;;6.75;3.92;;;;;;;22.09;34.83;100203.91;5533220;32;33677;-81
2023/03/21 11:35:40;;;;;;;5.28;4.20;;;;;;;22.92;33.33;100201.75;5537907;32;34413;-81
2023/03/21 11:38:47;;;;;;;6.00;4.12;;;;;;;24.50;30.68;100199.34;5534366;32;34452;-82
2023/03/21 11:41:50;;;;;;;6.03;4.65;;;;;;;24.23;30.17;100201.41;5539281;32;34270;-83
2023/03/21 11:45:22;;;;;;;4.70;4.28;;;;;;;22.64;32.37;100185.75;5539171;32;35027;-83
2023/03/21 11:48:25;;;;;;;16.77;4.25;;;;;;;22.19;34.30;100185.75;5542488;32;34122;-84
2023/03/21 11:51:32;;;;;;;6.90;4.30;;;;;;;22.12;32.70;100183.84;5538210;32;33635;-83
2023/03/21 11:55:00;;;;;;;5.60;4.03;;;;;;;20.24;36.00;100182.13;5537186;32;34590;-88
2023/03/21 11:58:02;;;;;;;5.97;4.07;;;;;;;21.02;35.40;100176.63;5532048;32;32701;-85
2023/03/21 12:01:28;;;;;;;3.83;3.50;;;;;;;20.38;36.63;100179.97;5529761;32;33795;-84
2023/03/21 12:04:45;;;;;;;7.22;4.20;;;;;;;20.54;34.94;100180.22;5530451;32;34746;-84
2023/03/21 12:08:11;;;;;;;8.43;4.65;;;;;;;19.71;36.12;100176.16;5540361;32;33700;-85
2023/03/21 12:11:24;;;;;;;5.07;4.50;;;;;;;19.22;38.05;100178.78;5505530;32;33693;-85
2023/03/21 12:14:36;;;;;;;4.80;3.72;;;;;;;18.67;39.63;100172.78;5534306;32;34678;-85
2023/03/21 12:17:55;;;;;;;5.10;4.60;;;;;;;18.52;39.75;100174.09;5525587;32;33739;-85
2023/03/21 12:21:16;;;;;;;8.65;4.15;;;;;;;18.26;40.46;100169.16;5529012;32;34800;-85
2023/03/21 12:24:45;;;;;;;4.97;4.30;;;;;;;18.40;39.78;100173.34;5530850;32;34657;-84
2023/03/21 12:28:17;;;;;;;6.00;4.60;;;;;;;17.93;40.73;100163.78;5535501;32;32669;-85
2023/03/21 12:31:42;;;;;;;4.82;4.43;;;;;;;18.08;41.28;100164.38;5525432;32;33694;-85
2023/03/21 12:35:04;;;;;;;5.82;4.90;;;;;;;18.27;40.93;100152.06;5536296;32;33993;-84
2023/03/21 12:38:37;;;;;;;5.18;4.37;;;;;;;18.36;41.25;100147.72;5546455;32;33885;-85
2023/03/21 12:41:52;;;;;;;4.53;4.12;;;;;;;18.81;40.16;100143.84;5529663;32;33999;-85
2023/03/21 12:45:28;;;;;;;4.78;3.97;;;;;;;19.23;38.66;100146.38;5533701;32;34117;-84
2023/03/21 12:48:56;;;;;;;3.80;3.50;;;;;;;19.71;37.40;100134.97;5550008;32;34345;-85
2023/03/21 12:52:25;;;;;;;7.50;3.67;;;;;;;18.95;37.88;100140.75;5549198;32;34301;-85
2023/03/21 12:55:32;;;;;;;4.18;3.50;;;;;;;18.82;38.62;100132.91;5539466;32;34182;-85
2023/03/21 12:58:45;;;;;;;4.25;3.83;;;;;;;18.64;39.49;100137.25;5537113;32;33983;-85
2023/03/21 13:01:53;;;;;;;4.80;3.85;;;;;;;18.16;40.93;100134.19;5538020;32;34439;-85
2023/03/21 13:04:59;;;;;;;7.25;3.55;;;;;;;17.86;41.31;100130.41;5525950;32;34216;-84
2023/03/21 13:08:18;;;;;;;3.58;3.28;;;;;;;17.08;41.40;100131.41;5528371;32;34076;-85
2023/03/21 13:11:27;;;;;;;3.95;2.42;;;;;;;16.91;41.25;100130.94;5538993;32;35018;-85
2023/03/21 13:14:41;;;;;;;2.87;2.62;;;;;;;16.62;40.81;100127.88;5533014;32;34101;-83
2023/03/21 13:17:55;;;;;;;3.62;2.90;;;;;;;16.52;40.32;100125.09;5530038;32;34034;-84
2023/03/21 13:21:10;;;;;;;2.87;2.60;;;;;;;16.36;40.95;100112.06;5522073;32;33902;-83
2023/03/21 13:24:18;;;;;;;3.70;3.20;;;;;;;16.91;40.20;100112.19;5511774;32;34149;-88
2023/03/21 13:27:33;;;;;;;3.40;3.10;;;;;;;17.64;40.03;100103.56;5515685;32;34871;-89
2023/03/21 13:30:36;;;;;;;3.90;2.72;;;;;;;17.92;39.71;100101.22;5515264;32;33947;-85
2023/03/21 13:33:44;;;;;;;2.58;1.98;;;;;;;17.82;38.90;100105.69;5527319;32;34269;-84
2023/03/21 13:36:51;;;;;;;3.03;2.35;;;;;;;17.92;36.81;100103.06;5535928;32;34511;-84
2023/03/21 13:40:00;;;;;;;4.57;2.55;;;;;;;18.02;36.73;100103.12;5535732;32;34959;-84
2023/03/21 13:43:03;;;;;;;5.65;3.30;;;;;;;18.72;36.45;100097.97;5534097;32;34014;-84
2023/03/21 13:46:08;;;;;;;3.20;2.90;;;;;;;18.41;36.89;100100.66;5527710;32;34380;-83
2023/03/21 13:49:25;;;;;;;3.15;2.70;;;;;;;18.57;37.20;100099.34;5535805;32;34091;-84
2023/03/21 13:52:28;;;;;;;3.55;2.80;;;;;;;18.70;36.94;100102.63;5535365;32;34003;-84
2023/03/21 13:55:40;;;;;;;3.60;2.50;;;;;;;18.49;37.28;100091.94;5540677;32;34190;-84
2023/03/21 13:58:42;;;;;;;5.05;2.75;;;;;;;18.83;37.06;100090.78;5536815;32;34674;-85
2023/03/21 14:02:03;;;;;;;6.90;3.10;;;;;;;18.30;38.22;100092.69;5532788;32;33665;-84
2023/03/21 14:05:17;;;;;;;3.05;2.72;;;;;;;17.89;39.46;100092.56;5516221;32;34063;-85
2023/03/21 14:08:19;;;;;;;3.80;2.85;;;;;;;17.65;39.86;100086.50;5518577;32;34101;-84
2023/03/21 14:11:38;;;;;;;3.42;2.83;;;;;;;17.44;39.41;100081.09;5515965;32;33947;-86
2023/03/21 14:14:57;;;;;;;4.47;2.45;;;;;;;16.97;39.46;100078.66;5513762;32;33693;-85
2023/03/21 14:18:18;;;;;;;5.32;2.62;;;;;;;17.42;38.33;100077.72;5517650;32;34617;-87
2023/03/21 14:21:37;;;;;;;3.45;2.60;;;;;;;17.69;39.50;100062.09;5522263;32;34035;-85
2023/03/21 14:24:45;;;;;;;5.90;2.40;;;;;;;17.98;37.37;100067.66;5529381;32;33962;-84
2023/03/21 14:27:54;;;;;;;3.30;2.28;;;;;;;17.89;37.97;100060.38;5533962;32;34920;-84
2023/03/21 14:30:59;;;;;;;4.15;2.60;;;;;;;17.98;37.62;100054.25;5535458;32;34052;-85
2023/03/21 14:34:03;;;;;;;5.28;2.58;;;;;;;18.08;37.41;100051.63;5524506;32;34153;-84
2023/03/21 14:37:09;;;;;;;5.97;2.80;;;;;;;17.69;39.11;100041.47;5516247;32;34158;-84
2023/03/21 14:40:25;;;;;;;6.07;3.10;;;;;;;17.93;39.21;100048.41;5516217;32;33823;-85
2023/03/21 14:43:33;;;;;;;4.55;3.10;;;;;;;18.18;38.82;100057.91;5516224;32;35016;-84
2023/03/21 14:46:35;;;;;;;4.00;3.20;;;;;;;17.85;40.20;100045.56;5515899;32;33950;-84
2023/03/21 14:49:38;;;;;;;4.53;2.95;;;;;;;17.59;40.72;100045.91;5514872;32;34083;-83
2023/03/21 14:52:43;;;;;;;4.90;3.12;;;;;;;17.34;40.99;100043.50;5525350;32;33636;-83
2023/03/21 14:55:53;;;;;;;3.78;3.35;;;;;;;17.64;41.16;100043.69;5533621;32;34063;-83
2023/03/21 14:58:57;;;;;;;;;;;;;;;17.51;40.21;100041.22;5534228;32;34183;-83
2023/03/21 15:02:02;;;;;;;2.78;2.45;;;;;;;17.70;39.31;100048.53;5537265;32;33939;-84
2023/03/21 15:05:25;;;;;;;5.93;2.58;;;;;;;17.77;38.46;100033.63;5535931;32;33904;-84
2023/03/21 15:08:29;;;;;;;13.07;2.55;;;;;;;17.57;37.89;100035.34;5532798;32;34664;-83
2023/03/21 15:11:36;;;;;;;2.95;2.65;;;;;;;17.89;37.51;100036.22;5535260;32;34464;-84
2023/03/21 15:14:40;;;;;;;3.80;3.08;;;;;;;17.30;39.50;100038.53;5537070;32;34805;-84
2023/03/21 15:17:43;;;;;;;5.75;3.40;;;;;;;17.28;40.33;100044.00;5535766;32;34799;-84
2023/03/21 15:20:48;;;;;;;4.72;3.37;;;;;;;17.27;40.70;100038.75;5535903;32;33912;-87
2023/03/21 15:23:59;;;;;;;4.57;3.50;;;;;;;17.07;41.31;100030.56;5533195;32;34081;-88
2023/03/21 15:27:05;;;;;;;5.30;3.70;;;;;;;17.18;41.45;100035.88;5534560;32;33601;-84
2023/03/21 15:30:21;;;;;;;5.97;3.97;;;;;;;16.60;43.51;100038.81;5537543;32;34242;-84
2023/03/21 15:33:24;;;;;;;5.12;3.40;;;;;;;16.16;45.08;100035.03;5532257;32;33838;-84
2023/03/21 15:36:32;;;;;;;4.50;4.05;;;;;;;16.26;45.38;100035.19;5532815;32;33952;-85
2023/03/21 15:39:37;;;;;;;6.85;3.97;;;;;;;15.99;46.18;100032.88;5533150;32;34695;-86
2023/03/21 15:42:40;;;;;;;7.00;3.87;;;;;;;15.87;46.46;100034.63;5533780;32;34498;-85
2023/03/21 15:45:51;;;;;;;4.75;4.00;;;;;;;16.11;45.89;100031.91;5533060;32;34062;-84
2023/03/21 15:49:10;;;;;;;7.82;4.10;;;;;;;15.88;46.54;100034.50;5516793;32;34820;-85
2023/03/21 15:52:15;;;;;;;4.22;3.85;;;;;;;15.78;46.84;100033.50;5520697;32;35457;-84
2023/03/21 15:55:25;;;;;;;4.53;4.12;;;;;;;15.60;47.35;100030.44;5528421;32;34374;-84
2023/03/21 15:58:41;;;;;;;4.87;3.87;;;;;;;15.48;46.75;100034.88;5532498;32;34334;-85
2023/03/21 16:01:46;;;;;;;5.05;3.60;;;;;;;15.43;47.05;100026.41;5532879;32;32981;-84
2023/03/21 16:05:18;;;;;;;4.68;3.70;;;;;;;15.45;47.24;100024.44;5531208;32;34070;-84
2023/03/21 16:08:26;;;;;;;7.55;3.72;;;;;;;15.44;47.04;100028.94;5531644;32;34581;-83
2023/03/21 16:11:57;;;;;;;4.15;3.75;;;;;;;15.46;46.62;100029.69;5527164;32;33872;-84
2023/03/21 16:15:00;;;;;;;5.10;4.03;;;;;;;15.53;46.41;100038.06;5529211;32;33971;-84
2023/03/21 16:18:06;;;;;;;7.93;4.03;;;;;;;15.33;46.74;100036.91;5532086;32;34073;-84
2023/03/21 16:21:14;;;;;;;5.15;4.35;;;;;;;15.32;46.90;100032.53;5532554;32;34691;-84
2023/03/21 16:24:17;;;;;;;5.45;4.47;;;;;;;15.05;47.72;100047.00;5532089;32;33919;-83
